createdAt,value
2019-03-17T00:00:49.517Z,24.13
2019-03-17T00:03:17.061Z,23.77
2019-03-17T00:05:44.631Z,21.70
2019-03-17T00:08:12.254Z,19.83
2019-03-17T00:10:39.739Z,20.33
2019-03-17T00:13:07.223Z,17.80
2019-03-17T00:15:34.757Z,20.83
2019-03-17T00:18:02.207Z,20.20
2019-03-17T00:20:29.729Z,13.27
2019-03-17T00:22:57.245Z,16.27
2019-03-17T00:25:24.783Z,19.93
2019-03-17T00:27:52.223Z,18.03
2019-03-17T00:30:19.725Z,16.13
2019-03-17T00:32:47.230Z,12.53
2019-03-17T00:35:14.758Z,15.07
2019-03-17T00:37:42.154Z,12.40
2019-03-17T00:40:09.860Z,12.20
2019-03-17T00:42:37.472Z,16.47
2019-03-17T00:45:05.503Z,14.13
2019-03-17T00:47:33.040Z,11.17
2019-03-17T00:50:00.536Z,9.97
2019-03-17T00:52:27.910Z,11.43
2019-03-17T00:54:55.390Z,11.80
2019-03-17T00:57:23.028Z,10.80
2019-03-17T00:59:50.560Z,11.90
2019-03-17T01:02:18.069Z,12.80
2019-03-17T01:04:55.715Z,13.67
2019-03-17T01:07:16.324Z,13.00
2019-03-17T01:09:43.938Z,14.17
2019-03-17T01:12:11.476Z,18.53
2019-03-17T01:14:38.979Z,14.10
2019-03-17T01:17:06.497Z,10.93
2019-03-17T01:19:33.975Z,13.17
2019-03-17T01:22:01.473Z,13.50
2019-03-17T01:24:28.912Z,16.63
2019-03-17T01:26:56.354Z,13.07
2019-03-17T01:29:23.835Z,14.37
2019-03-17T01:31:51.329Z,8.10
2019-03-17T01:34:18.777Z,13.90
2019-03-17T01:36:46.283Z,12.90
2019-03-17T01:39:13.763Z,12.20
2019-03-17T01:41:41.198Z,11.33
2019-03-17T01:44:08.981Z,10.63
2019-03-17T01:46:36.652Z,11.50
2019-03-17T01:49:04.111Z,9.27
2019-03-17T01:51:31.610Z,9.07
2019-03-17T01:53:59.039Z,10.97
2019-03-17T01:56:26.514Z,15.63
2019-03-17T01:58:54.108Z,9.67
2019-03-17T02:01:21.610Z,11.23
2019-03-17T02:03:49.293Z,12.17
2019-03-17T02:06:16.806Z,10.57
2019-03-17T02:08:44.286Z,9.70
2019-03-17T02:11:11.706Z,10.30
2019-03-17T02:13:39.203Z,21.83
2019-03-17T02:16:06.685Z,10.23
2019-03-17T02:18:34.095Z,10.60
2019-03-17T02:21:01.582Z,11.13
2019-03-17T02:23:29.107Z,11.90
2019-03-17T02:25:56.579Z,10.33
2019-03-17T02:28:24.019Z,16.83
2019-03-17T02:30:51.508Z,12.03
2019-03-17T02:33:19.026Z,14.03
2019-03-17T02:35:46.524Z,10.03
2019-03-17T02:38:13.970Z,13.77
2019-03-17T02:40:41.414Z,13.27
2019-03-17T02:43:08.892Z,9.43
2019-03-17T02:45:36.436Z,7.77
2019-03-17T02:48:04.025Z,11.93
2019-03-17T02:50:31.595Z,12.97
2019-03-17T02:52:59.169Z,10.63
2019-03-17T02:55:26.642Z,11.53
2019-03-17T02:57:54.157Z,12.73
2019-03-17T03:00:21.703Z,16.30
2019-03-17T03:02:49.222Z,15.63
2019-03-17T03:05:16.660Z,17.47
2019-03-17T03:07:44.279Z,18.40
2019-03-17T03:10:11.880Z,16.83
2019-03-17T03:12:39.348Z,18.23
2019-03-17T03:15:07.358Z,19.90
2019-03-17T03:17:34.849Z,18.33
2019-03-17T03:20:02.275Z,15.47
2019-03-17T03:22:29.774Z,11.87
2019-03-17T03:24:57.274Z,13.40
2019-03-17T03:27:24.741Z,8.27
2019-03-17T03:29:52.201Z,11.57
2019-03-17T03:32:19.853Z,11.70
2019-03-17T03:34:48.602Z,10.27
2019-03-17T03:37:16.654Z,13.30
2019-03-17T03:39:44.189Z,9.67
2019-03-17T03:42:11.724Z,9.00
2019-03-17T03:44:39.381Z,8.83
2019-03-17T03:47:06.947Z,10.20
2019-03-17T03:49:34.393Z,10.27
2019-03-17T03:52:01.869Z,17.47
2019-03-17T03:54:29.506Z,10.50
2019-03-17T03:56:57.046Z,10.97
2019-03-17T03:59:24.872Z,10.47
2019-03-17T04:01:52.451Z,11.33
2019-03-17T04:04:19.940Z,7.30
2019-03-17T04:06:47.454Z,7.83
2019-03-17T04:09:14.880Z,9.83
2019-03-17T04:11:42.366Z,10.93
2019-03-17T04:14:09.868Z,13.23
2019-03-17T04:16:37.310Z,8.57
2019-03-17T04:19:05.364Z,7.33
2019-03-17T04:21:32.837Z,9.33
2019-03-17T04:24:01.169Z,9.67
2019-03-17T04:26:28.944Z,14.43
2019-03-17T04:28:56.369Z,14.57
2019-03-17T04:31:23.901Z,8.23
2019-03-17T04:33:52.332Z,10.40
2019-03-17T04:36:19.747Z,8.53
2019-03-17T04:38:47.340Z,7.87
2019-03-17T04:41:14.875Z,12.93
2019-03-17T04:43:43.409Z,9.37
2019-03-17T04:46:10.979Z,11.27
2019-03-17T04:48:38.888Z,9.30
2019-03-17T04:51:06.336Z,14.63
2019-03-17T04:53:33.830Z,10.83
2019-03-17T04:56:01.873Z,8.23
2019-03-17T04:58:30.363Z,9.40
2019-03-17T05:00:57.863Z,11.87
2019-03-17T05:03:25.650Z,13.77
2019-03-17T05:05:53.165Z,9.33
2019-03-17T05:08:20.872Z,10.73
2019-03-17T05:10:48.428Z,14.00
2019-03-17T05:13:16.508Z,10.90
2019-03-17T05:15:44.924Z,9.57
2019-03-17T05:18:12.439Z,11.90
2019-03-17T05:20:40.410Z,12.23
2019-03-17T05:23:08.566Z,11.20
2019-03-17T05:25:36.232Z,14.03
2019-03-17T05:28:04.501Z,13.77
2019-03-17T05:30:32.942Z,14.17
2019-03-17T05:33:01.087Z,12.17
2019-03-17T05:35:29.023Z,13.57
2019-03-17T05:37:56.514Z,10.70
2019-03-17T05:40:24.033Z,16.43
2019-03-17T05:42:51.505Z,14.67
2019-03-17T05:45:19.107Z,14.37
2019-03-17T05:47:46.673Z,11.87
2019-03-17T05:50:14.235Z,9.70
2019-03-17T05:52:41.733Z,11.43
2019-03-17T05:55:09.729Z,11.80
2019-03-17T05:57:37.216Z,9.67
2019-03-17T06:00:06.029Z,8.73
2019-03-17T06:02:33.778Z,9.00
2019-03-17T06:05:01.435Z,6.70
2019-03-17T06:07:29.170Z,10.20
2019-03-17T06:09:56.630Z,14.00
2019-03-17T06:12:24.381Z,11.17
2019-03-17T06:14:51.874Z,7.53
2019-03-17T06:17:19.330Z,9.73
2019-03-17T06:19:47.230Z,9.57
2019-03-17T06:22:14.711Z,9.47
2019-03-17T06:24:42.880Z,12.07
2019-03-17T06:27:10.449Z,10.97
2019-03-17T06:29:38.027Z,11.00
2019-03-17T06:32:05.603Z,10.67
2019-03-17T06:34:33.043Z,10.63
2019-03-17T06:37:00.670Z,11.13
2019-03-17T06:39:28.402Z,12.33
2019-03-17T06:41:55.908Z,12.63
2019-03-17T06:44:23.468Z,10.10
2019-03-17T06:46:51.196Z,9.47
2019-03-17T06:49:18.654Z,8.20
2019-03-17T06:51:46.083Z,9.47
2019-03-17T06:54:13.614Z,14.40
2019-03-17T06:56:41.113Z,10.87
2019-03-17T06:59:08.515Z,10.03
2019-03-17T07:01:36.016Z,13.70
2019-03-17T07:04:03.666Z,8.60
2019-03-17T07:06:31.437Z,9.13
2019-03-17T07:08:58.913Z,11.93
2019-03-17T07:11:26.466Z,11.20
2019-03-17T07:13:54.021Z,8.57
2019-03-17T07:16:21.551Z,6.63
2019-03-17T07:18:49.048Z,9.37
2019-03-17T07:21:16.848Z,5.90
2019-03-17T07:23:44.359Z,8.53
2019-03-17T07:26:11.818Z,8.30
2019-03-17T07:28:39.414Z,10.37
2019-03-17T07:31:06.906Z,8.60
2019-03-17T07:33:34.504Z,9.83
2019-03-17T07:36:02.166Z,8.80
2019-03-17T07:38:29.673Z,6.97
2019-03-17T07:40:57.184Z,7.40
2019-03-17T07:43:24.681Z,8.73
2019-03-17T07:45:52.161Z,11.60
2019-03-17T07:48:19.794Z,8.77
2019-03-17T07:50:47.185Z,9.17
2019-03-17T07:53:14.694Z,10.50
2019-03-17T07:55:42.205Z,12.13
2019-03-17T07:58:09.699Z,12.17
2019-03-17T08:00:37.312Z,11.67
2019-03-17T08:03:05.268Z,10.50
2019-03-17T08:05:32.797Z,16.00
2019-03-17T08:08:09.491Z,9.53
2019-03-17T08:10:30.047Z,14.23
2019-03-17T08:12:57.545Z,8.70
2019-03-17T08:15:25.007Z,12.07
2019-03-17T08:17:53.297Z,9.30
2019-03-17T08:20:20.869Z,13.33
2019-03-17T08:22:48.287Z,9.37
2019-03-17T08:25:15.878Z,9.63
2019-03-17T08:27:43.501Z,11.20
2019-03-17T08:30:11.483Z,10.13
2019-03-17T08:32:41.218Z,12.13
2019-03-17T08:35:08.534Z,11.23
2019-03-17T08:37:36.022Z,10.63
2019-03-17T08:40:04.621Z,15.73
2019-03-17T08:42:32.041Z,9.40
2019-03-17T08:44:59.529Z,14.63
2019-03-17T08:47:26.994Z,11.50
2019-03-17T08:49:54.497Z,13.83
2019-03-17T08:52:22.125Z,12.07
2019-03-17T08:54:49.645Z,9.97
2019-03-17T08:57:17.093Z,11.83
2019-03-17T08:59:44.692Z,12.40
2019-03-17T09:02:12.167Z,9.50
2019-03-17T09:04:40.516Z,12.23
2019-03-17T09:07:08.006Z,11.10
2019-03-17T09:09:35.736Z,9.80
2019-03-17T09:12:03.305Z,9.80
2019-03-17T09:14:30.847Z,13.30
2019-03-17T09:16:58.390Z,9.03
2019-03-17T09:19:25.928Z,11.87
2019-03-17T09:21:53.948Z,7.40
2019-03-17T09:24:21.462Z,8.83
2019-03-17T09:26:49.186Z,14.50
2019-03-17T09:29:16.836Z,10.07
2019-03-17T09:31:44.345Z,8.50
2019-03-17T09:34:12.057Z,9.37
2019-03-17T09:36:39.617Z,10.37
2019-03-17T09:39:07.207Z,14.50
2019-03-17T09:41:35.226Z,8.07
2019-03-17T09:44:02.892Z,7.07
2019-03-17T09:46:30.782Z,9.47
2019-03-17T09:48:58.460Z,8.57
2019-03-17T09:51:26.319Z,10.80
2019-03-17T09:53:54.203Z,8.93
2019-03-17T09:56:22.077Z,6.13
2019-03-17T09:58:50.112Z,7.87
2019-03-17T10:01:17.892Z,6.47
2019-03-17T10:03:45.817Z,8.73
2019-03-17T10:06:13.588Z,9.33
2019-03-17T10:08:41.551Z,6.57
2019-03-17T10:11:10.809Z,13.43
2019-03-17T10:13:38.655Z,5.37
2019-03-17T10:16:07.054Z,7.80
2019-03-17T10:18:34.527Z,6.63
2019-03-17T10:21:02.058Z,10.00
2019-03-17T10:23:29.533Z,12.90
2019-03-17T10:25:57.077Z,4.63
2019-03-17T10:28:24.683Z,3.17
2019-03-17T10:30:52.772Z,7.87
2019-03-17T10:33:20.392Z,3.40
2019-03-17T10:35:47.924Z,3.43
2019-03-17T10:38:15.321Z,4.17
2019-03-17T10:40:42.786Z,3.63
2019-03-17T10:43:10.324Z,2.43
2019-03-17T10:45:37.728Z,4.70
2019-03-17T10:48:05.229Z,1.90
2019-03-17T10:50:32.778Z,4.97
2019-03-17T10:53:00.245Z,4.20
2019-03-17T10:55:27.711Z,7.13
2019-03-17T10:57:55.177Z,3.97
2019-03-17T11:00:22.688Z,5.87
2019-03-17T11:02:50.175Z,5.07
2019-03-17T11:05:17.643Z,3.77
2019-03-17T11:07:45.162Z,3.80
2019-03-17T11:10:12.965Z,4.07
2019-03-17T11:12:40.688Z,5.23
2019-03-17T11:15:10.036Z,3.37
2019-03-17T11:17:37.534Z,4.60
2019-03-17T11:20:07.985Z,3.10
2019-03-17T11:22:35.401Z,2.27
2019-03-17T11:25:03.028Z,3.37
2019-03-17T11:27:30.534Z,8.13
2019-03-17T11:29:58.211Z,3.13
2019-03-17T11:32:25.732Z,2.97
2019-03-17T11:34:53.131Z,3.67
2019-03-17T11:37:23.457Z,3.63
2019-03-17T11:39:50.091Z,5.47
2019-03-17T11:42:18.259Z,7.23
2019-03-17T11:44:45.796Z,2.77
2019-03-17T11:47:13.344Z,2.83
2019-03-17T11:49:41.295Z,2.70
2019-03-17T11:52:08.882Z,4.30
2019-03-17T11:54:36.280Z,7.53
2019-03-17T11:57:03.854Z,5.60
2019-03-17T11:59:31.385Z,2.30
2019-03-17T12:01:58.833Z,4.27
2019-03-17T12:04:26.333Z,2.03
2019-03-17T12:06:53.797Z,3.53
2019-03-17T12:09:28.970Z,3.23
2019-03-17T12:11:50.596Z,8.97
2019-03-17T12:14:18.204Z,4.70
2019-03-17T12:16:45.877Z,8.37
2019-03-17T12:19:13.408Z,3.10
2019-03-17T12:21:40.825Z,5.50
2019-03-17T12:24:08.321Z,4.63
2019-03-17T12:26:35.776Z,4.53
2019-03-17T12:29:03.797Z,6.33
2019-03-17T12:31:31.205Z,3.37
2019-03-17T12:34:00.157Z,3.33
2019-03-17T12:36:27.598Z,4.13
2019-03-17T12:38:55.110Z,2.70
2019-03-17T12:41:22.560Z,3.13
2019-03-17T12:43:49.975Z,3.40
2019-03-17T12:46:17.512Z,2.67
2019-03-17T12:48:45.072Z,6.57
2019-03-17T12:51:12.963Z,2.40
2019-03-17T12:53:40.409Z,2.53
2019-03-17T12:56:09.115Z,2.80
2019-03-17T12:58:36.632Z,3.63
2019-03-17T13:01:04.143Z,12.47
2019-03-17T13:03:31.588Z,2.20
2019-03-17T13:05:59.132Z,2.60
2019-03-17T13:08:26.622Z,3.60
2019-03-17T13:10:54.236Z,2.57
2019-03-17T13:13:21.625Z,3.57
2019-03-17T13:15:49.254Z,3.23
2019-03-17T13:18:16.693Z,2.33
2019-03-17T13:20:44.093Z,3.53
2019-03-17T13:23:11.599Z,3.17
2019-03-17T13:25:39.114Z,1.33
2019-03-17T13:28:06.504Z,4.10
2019-03-17T13:30:33.943Z,1.60
2019-03-17T13:33:01.399Z,3.97
2019-03-17T13:35:28.841Z,3.70
2019-03-17T13:37:56.354Z,2.83
2019-03-17T13:40:29.645Z,2.23
2019-03-17T13:42:53.201Z,2.20
2019-03-17T13:45:20.699Z,2.13
2019-03-17T13:47:48.232Z,6.10
2019-03-17T13:50:15.749Z,2.73
2019-03-17T13:52:43.332Z,2.87
2019-03-17T13:55:10.987Z,3.90
2019-03-17T13:57:38.340Z,2.90
2019-03-17T14:00:08.082Z,4.57
2019-03-17T14:02:35.575Z,3.80
2019-03-17T14:05:03.415Z,2.13
2019-03-17T14:07:30.903Z,3.50
2019-03-17T14:09:58.337Z,3.00
2019-03-17T14:12:25.774Z,3.47
2019-03-17T14:14:53.261Z,2.00
2019-03-17T14:17:20.922Z,2.43
2019-03-17T14:19:48.433Z,7.17
2019-03-17T14:22:15.894Z,5.00
2019-03-17T14:24:43.422Z,3.53
2019-03-17T14:27:10.938Z,2.43
2019-03-17T14:29:38.411Z,1.97
2019-03-17T14:32:05.936Z,2.27
2019-03-17T14:34:33.354Z,2.97
2019-03-17T14:37:00.826Z,7.20
2019-03-17T14:39:28.344Z,2.67
2019-03-17T14:41:55.967Z,5.10
2019-03-17T14:44:23.498Z,3.57
2019-03-17T14:46:50.925Z,6.93
2019-03-17T14:49:18.567Z,3.30
2019-03-17T14:51:46.095Z,4.50
2019-03-17T14:54:13.555Z,5.33
2019-03-17T14:56:41.041Z,5.00
2019-03-17T14:59:08.494Z,3.67
2019-03-17T15:01:35.891Z,5.63
2019-03-17T15:04:03.465Z,4.37
2019-03-17T15:06:30.936Z,3.97
2019-03-17T15:08:58.367Z,3.33
2019-03-17T15:11:27.366Z,2.23
2019-03-17T15:13:55.084Z,2.50
2019-03-17T15:16:22.643Z,2.67
2019-03-17T15:18:50.231Z,6.63
2019-03-17T15:21:17.746Z,2.07
2019-03-17T15:23:45.240Z,3.77
2019-03-17T15:26:12.817Z,4.90
2019-03-17T15:28:40.341Z,2.70
2019-03-17T15:31:12.100Z,3.73
2019-03-17T15:33:37.283Z,5.53
2019-03-17T15:36:04.746Z,2.83
2019-03-17T15:38:32.230Z,2.63
2019-03-17T15:40:59.839Z,2.97
2019-03-17T15:43:27.305Z,5.23
2019-03-17T15:45:54.817Z,2.37
2019-03-17T15:48:22.276Z,3.77
2019-03-17T15:50:49.799Z,5.67
2019-03-17T15:53:17.695Z,3.20
2019-03-17T15:55:45.224Z,6.17
2019-03-17T15:58:12.625Z,4.40
2019-03-17T16:00:40.132Z,2.73
2019-03-17T16:03:07.740Z,2.47
2019-03-17T16:05:35.150Z,5.03
2019-03-17T16:08:02.658Z,4.57
2019-03-17T16:10:30.224Z,4.43
2019-03-17T16:12:57.729Z,2.87
2019-03-17T16:15:25.665Z,5.67
2019-03-17T16:17:53.224Z,3.53
2019-03-17T16:20:21.032Z,3.83
2019-03-17T16:22:49.311Z,5.73
2019-03-17T16:25:17.736Z,3.53
2019-03-17T16:27:45.339Z,4.57
2019-03-17T16:30:15.281Z,2.83
2019-03-17T16:32:42.893Z,3.37
2019-03-17T16:35:10.621Z,10.97
2019-03-17T16:37:38.089Z,5.60
2019-03-17T16:40:06.914Z,8.83
2019-03-17T16:42:34.415Z,15.57
2019-03-17T16:45:01.807Z,12.50
2019-03-17T16:47:29.253Z,9.43
2019-03-17T16:49:58.884Z,11.90
2019-03-17T16:52:26.222Z,13.57
2019-03-17T16:54:53.673Z,15.53
2019-03-17T16:57:21.134Z,15.70
2019-03-17T16:59:48.667Z,16.43
2019-03-17T17:02:16.113Z,18.53
2019-03-17T17:04:43.613Z,15.97
2019-03-17T17:07:11.099Z,15.90
2019-03-17T17:09:38.595Z,14.53
2019-03-17T17:12:06.066Z,17.67
2019-03-17T17:14:33.590Z,12.13
2019-03-17T17:17:01.065Z,11.67
2019-03-17T17:19:28.582Z,15.37
2019-03-17T17:21:58.616Z,16.07
2019-03-17T17:24:25.645Z,16.37
2019-03-17T17:26:53.140Z,14.60
2019-03-17T17:29:20.544Z,12.83
2019-03-17T17:31:48.071Z,15.17
2019-03-17T17:34:15.580Z,18.20
2019-03-17T17:36:43.040Z,16.87
2019-03-17T17:39:10.530Z,15.20
2019-03-17T17:41:37.968Z,18.43
2019-03-17T17:44:05.587Z,10.90
2019-03-17T17:46:33.276Z,13.27
2019-03-17T17:49:00.797Z,16.43
2019-03-17T17:51:28.346Z,13.17
2019-03-17T17:53:55.960Z,19.30
2019-03-17T17:56:23.507Z,13.43
2019-03-17T17:58:51.239Z,16.20
2019-03-17T18:01:18.746Z,12.87
2019-03-17T18:03:51.509Z,14.60
2019-03-17T18:06:15.978Z,11.77
2019-03-17T18:08:43.453Z,18.67
2019-03-17T18:11:10.946Z,13.23
2019-03-17T18:13:38.559Z,15.47
2019-03-17T18:16:06.035Z,19.57
2019-03-17T18:18:33.536Z,11.30
2019-03-17T18:21:01.384Z,15.50
2019-03-17T18:23:29.236Z,18.70
2019-03-17T18:25:57.682Z,25.73
2019-03-17T18:28:25.134Z,15.13
2019-03-17T18:30:52.568Z,16.97
2019-03-17T18:33:20.023Z,16.53
2019-03-17T18:35:47.568Z,19.17
2019-03-17T18:38:15.023Z,16.53
2019-03-17T18:40:42.612Z,19.07
2019-03-17T18:43:10.278Z,17.10
2019-03-17T18:45:37.698Z,17.73
2019-03-17T18:48:05.315Z,17.03
2019-03-17T18:50:33.675Z,18.50
2019-03-17T18:53:01.179Z,15.23
2019-03-17T18:55:28.798Z,14.63
2019-03-17T18:57:56.480Z,14.13
2019-03-17T19:00:26.449Z,10.50
2019-03-17T19:02:53.892Z,13.97
2019-03-17T19:05:21.799Z,13.90
2019-03-17T19:07:50.402Z,14.60
2019-03-17T19:10:17.988Z,13.60
2019-03-17T19:12:46.408Z,10.80
2019-03-17T19:15:14.413Z,10.70
2019-03-17T19:17:42.002Z,9.20
2019-03-17T19:20:10.991Z,10.93
2019-03-17T19:22:38.516Z,9.60
2019-03-17T19:25:09.238Z,9.83
2019-03-17T19:27:37.571Z,7.80
2019-03-17T19:30:06.677Z,7.67
2019-03-17T19:32:34.164Z,7.47
2019-03-17T19:35:01.659Z,6.90
2019-03-17T19:37:29.116Z,9.07
2019-03-17T19:39:56.587Z,13.63
2019-03-17T19:42:24.140Z,12.87
2019-03-17T19:44:51.604Z,17.23
2019-03-17T19:47:19.048Z,16.07
2019-03-17T19:49:47.670Z,13.53
2019-03-17T19:52:15.288Z,12.40
2019-03-17T19:54:42.766Z,17.90
2019-03-17T19:57:10.226Z,16.53
2019-03-17T19:59:37.707Z,15.13
2019-03-17T20:02:05.080Z,16.03
2019-03-17T20:04:35.445Z,13.70
2019-03-17T20:07:02.144Z,22.80
2019-03-17T20:09:29.646Z,26.90
2019-03-17T20:11:57.241Z,22.20
2019-03-17T20:14:24.735Z,20.73
2019-03-17T20:16:52.250Z,17.40
2019-03-17T20:19:19.891Z,15.87
2019-03-17T20:21:47.907Z,13.90
2019-03-17T20:24:15.407Z,12.93
2019-03-17T20:26:43.046Z,15.87
2019-03-17T20:29:10.535Z,15.60
2019-03-17T20:31:38.027Z,15.07
2019-03-17T20:34:05.542Z,14.33
2019-03-17T20:36:33.046Z,11.83
2019-03-17T20:39:00.514Z,13.40
2019-03-17T20:41:27.915Z,14.27
2019-03-17T20:43:55.409Z,14.87
2019-03-17T20:46:22.901Z,13.50
2019-03-17T20:48:50.368Z,17.00
2019-03-17T20:51:17.876Z,13.67
2019-03-17T20:53:45.485Z,13.50
2019-03-17T20:56:13.012Z,12.97
2019-03-17T20:58:42.367Z,17.67
2019-03-17T21:01:09.765Z,12.67
2019-03-17T21:03:37.276Z,9.67
2019-03-17T21:06:04.812Z,8.60
2019-03-17T21:08:32.288Z,11.00
2019-03-17T21:10:59.720Z,7.70
2019-03-17T21:13:27.190Z,9.63
2019-03-17T21:15:55.065Z,20.53
2019-03-17T21:18:22.545Z,15.23
2019-03-17T21:20:49.949Z,18.17
2019-03-17T21:23:17.502Z,14.17
2019-03-17T21:25:44.967Z,13.30
2019-03-17T21:28:12.375Z,14.13
2019-03-17T21:30:40.925Z,19.73
2019-03-17T21:33:08.379Z,14.13
2019-03-17T21:35:35.831Z,11.23
2019-03-17T21:38:03.461Z,11.80
2019-03-17T21:40:31.896Z,8.07
2019-03-17T21:42:59.377Z,8.20
2019-03-17T21:45:27.612Z,9.97
2019-03-17T21:47:55.290Z,10.70
2019-03-17T21:50:22.776Z,10.73
2019-03-17T21:52:50.305Z,15.10
2019-03-17T21:55:18.039Z,11.90
2019-03-17T21:57:46.490Z,16.27
2019-03-17T22:00:14.809Z,11.53
2019-03-17T22:02:42.196Z,10.37
2019-03-17T22:05:10.828Z,13.13
2019-03-17T22:07:48.934Z,14.73
2019-03-17T22:10:08.644Z,12.73
2019-03-17T22:12:36.018Z,16.37
2019-03-17T22:15:03.768Z,17.07
2019-03-17T22:17:31.230Z,15.80
2019-03-17T22:19:58.649Z,14.13
2019-03-17T22:22:26.140Z,11.93
2019-03-17T22:24:53.623Z,10.67
2019-03-17T22:27:21.676Z,8.77
2019-03-17T22:29:49.130Z,11.33
2019-03-17T22:32:16.589Z,7.43
2019-03-17T22:34:44.076Z,8.43
2019-03-17T22:37:11.514Z,8.00
2019-03-17T22:39:38.917Z,7.37
2019-03-17T22:42:06.367Z,8.73
2019-03-17T22:44:33.898Z,7.80
2019-03-17T22:47:01.763Z,7.50
2019-03-17T22:49:29.266Z,8.07
2019-03-17T22:51:56.707Z,8.93
2019-03-17T22:54:24.393Z,9.67
2019-03-17T22:56:51.875Z,10.53
2019-03-17T22:59:19.378Z,8.47
2019-03-17T23:01:46.890Z,9.73
2019-03-17T23:04:14.327Z,9.87
2019-03-17T23:06:41.786Z,9.67
2019-03-17T23:09:09.275Z,9.83
2019-03-17T23:11:36.712Z,13.00
2019-03-17T23:14:04.252Z,8.40
2019-03-17T23:16:31.636Z,10.40
2019-03-17T23:18:59.093Z,8.00
2019-03-17T23:21:26.736Z,10.47
2019-03-17T23:23:54.211Z,12.07
2019-03-17T23:26:21.658Z,13.60
2019-03-17T23:28:49.077Z,10.20
2019-03-17T23:31:16.621Z,8.53
2019-03-17T23:33:44.174Z,10.10
2019-03-17T23:36:11.594Z,10.50
2019-03-17T23:38:39.038Z,10.57
2019-03-17T23:41:06.946Z,8.53
2019-03-17T23:43:34.389Z,10.43
2019-03-17T23:46:01.878Z,10.97
2019-03-17T23:48:29.316Z,11.17
2019-03-17T23:50:56.766Z,11.40
2019-03-17T23:53:24.806Z,17.33
2019-03-17T23:55:52.214Z,21.33
2019-03-17T23:58:19.789Z,21.07
